createdAt,value
2023-01-26T00:01:09.307Z,79.00
2023-01-26T00:03:36.671Z,91.70
2023-01-26T00:06:04.876Z,105.83
2023-01-26T00:08:35.394Z,103.90
2023-01-26T00:11:04.786Z,76.47
2023-01-26T00:13:32.388Z,52.60
2023-01-26T00:15:59.893Z,73.40
2023-01-26T00:18:28.088Z,71.63
2023-01-26T00:20:59.481Z,57.67
2023-01-26T00:23:28.412Z,89.10
2023-01-26T00:25:55.739Z,94.90
2023-01-26T00:28:23.149Z,69.17
2023-01-26T00:30:50.451Z,82.17
2023-01-26T00:33:17.746Z,105.20
2023-01-26T00:35:53.479Z,70.07
2023-01-26T00:38:20.745Z,103.03
2023-01-26T00:40:47.994Z,88.50
2023-01-26T00:43:15.569Z,102.40
2023-01-26T00:45:43.230Z,74.10
2023-01-26T00:48:10.620Z,79.97
2023-01-26T00:50:37.872Z,98.40
2023-01-26T00:53:05.930Z,104.43
2023-01-26T00:55:33.169Z,79.40
2023-01-26T00:58:00.670Z,93.90
2023-01-26T01:00:30.187Z,85.73
2023-01-26T01:02:57.702Z,88.47
2023-01-26T01:05:26.334Z,81.00
2023-01-26T01:07:53.999Z,96.73
2023-01-26T01:10:22.230Z,71.43
2023-01-26T01:12:49.499Z,72.77
2023-01-26T01:15:17.066Z,116.17
2023-01-26T01:17:44.327Z,89.83
2023-01-26T01:20:12.795Z,99.33
2023-01-26T01:22:40.235Z,95.03
2023-01-26T01:25:08.146Z,82.73
2023-01-26T01:27:36.055Z,110.13
2023-01-26T01:30:06.919Z,108.13
2023-01-26T01:32:35.598Z,84.57
2023-01-26T01:35:03.486Z,96.33
2023-01-26T01:37:30.965Z,87.60
2023-01-26T01:39:58.353Z,77.43
2023-01-26T01:42:26.236Z,84.63
2023-01-26T01:45:38.117Z,71.80
2023-01-26T01:48:13.662Z,92.17
2023-01-26T01:50:41.887Z,96.07
2023-01-26T01:53:12.897Z,88.07
2023-01-26T01:55:40.599Z,84.87
2023-01-26T01:58:08.099Z,77.33
2023-01-26T02:00:36.038Z,74.40
2023-01-26T02:03:14.181Z,96.80
2023-01-26T02:05:50.685Z,80.33
2023-01-26T02:08:19.638Z,87.20
2023-01-26T02:10:49.668Z,91.10
2023-01-26T02:13:18.256Z,80.27
2023-01-26T02:15:46.351Z,100.10
2023-01-26T02:18:13.571Z,127.27
2023-01-26T02:20:45.402Z,101.50
2023-01-26T02:23:35.146Z,98.13
2023-01-26T02:26:08.358Z,117.63
2023-01-26T02:28:35.606Z,89.87
2023-01-26T02:31:03.261Z,90.67
2023-01-26T02:33:32.929Z,82.20
2023-01-26T02:36:01.980Z,93.67
2023-01-26T02:38:39.077Z,84.30
2023-01-26T02:41:10.224Z,76.60
2023-01-26T02:43:37.375Z,76.97
2023-01-26T02:46:04.882Z,91.50
2023-01-26T02:48:51.191Z,94.23
2023-01-26T02:51:18.414Z,94.93
2023-01-26T02:53:45.679Z,105.87
2023-01-26T02:56:13.307Z,115.97
2023-01-26T02:58:40.680Z,133.27
2023-01-26T03:01:07.977Z,92.87
2023-01-26T03:03:44.861Z,102.30
2023-01-26T03:06:13.056Z,87.27
2023-01-26T03:08:41.070Z,94.03
2023-01-26T03:11:09.021Z,94.10
2023-01-26T03:13:36.945Z,138.50
2023-01-26T03:16:07.790Z,94.00
2023-01-26T03:18:54.564Z,89.10
2023-01-26T03:21:40.309Z,113.13
2023-01-26T03:24:30.446Z,96.53
2023-01-26T03:27:16.017Z,80.67
2023-01-26T03:29:44.400Z,69.43
2023-01-26T03:32:11.879Z,90.63
2023-01-26T03:34:39.130Z,76.47
2023-01-26T03:37:06.426Z,98.67
2023-01-26T03:39:51.747Z,89.73
2023-01-26T03:42:37.310Z,96.27
2023-01-26T03:45:24.687Z,70.93
2023-01-26T03:48:09.817Z,91.70
2023-01-26T03:50:55.201Z,84.23
2023-01-26T03:53:41.795Z,85.33
2023-01-26T03:56:17.293Z,97.93
2023-01-26T03:58:44.775Z,80.30
2023-01-26T04:01:19.247Z,81.73
2023-01-26T04:04:06.009Z,78.17
2023-01-26T04:06:51.604Z,87.97
2023-01-26T04:09:19.195Z,84.33
2023-01-26T04:11:46.770Z,78.03
2023-01-26T04:14:34.495Z,87.30
2023-01-26T04:17:35.486Z,75.90
2023-01-26T04:20:21.265Z,87.40
2023-01-26T04:22:48.541Z,81.90
2023-01-26T04:25:18.128Z,81.27
2023-01-26T04:27:45.780Z,87.37
2023-01-26T04:30:15.223Z,86.43
2023-01-26T04:32:43.575Z,91.43
2023-01-26T04:35:11.208Z,78.90
2023-01-26T04:37:38.577Z,66.80
2023-01-26T04:40:07.234Z,64.73
2023-01-26T04:42:34.800Z,82.13
2023-01-26T04:45:02.080Z,62.50
2023-01-26T04:47:29.616Z,65.03
2023-01-26T04:49:57.534Z,84.60
2023-01-26T04:52:24.838Z,72.90
2023-01-26T04:54:52.099Z,60.57
2023-01-26T04:57:20.378Z,68.50
2023-01-26T04:59:47.617Z,70.10
2023-01-26T05:02:15.074Z,65.30
2023-01-26T05:04:42.357Z,58.07
2023-01-26T05:07:10.220Z,62.10
2023-01-26T05:09:37.474Z,73.80
2023-01-26T05:12:19.532Z,79.30
2023-01-26T05:14:46.791Z,63.33
2023-01-26T05:17:14.272Z,57.10
2023-01-26T05:19:41.535Z,67.60
2023-01-26T05:22:10.986Z,65.00
2023-01-26T05:24:39.678Z,66.20
2023-01-26T05:27:21.834Z,66.80
2023-01-26T05:29:49.532Z,79.30
2023-01-26T05:32:16.999Z,63.93
2023-01-26T05:34:44.270Z,63.50
2023-01-26T05:37:14.438Z,68.37
2023-01-26T05:39:42.309Z,67.80
2023-01-26T05:42:10.837Z,57.90
2023-01-26T05:44:38.506Z,75.40
2023-01-26T05:47:05.845Z,77.17
2023-01-26T05:49:33.104Z,71.67
2023-01-26T05:52:00.665Z,67.37
2023-01-26T05:54:28.565Z,61.13
2023-01-26T05:56:56.847Z,69.30
2023-01-26T05:59:24.173Z,55.57
2023-01-26T06:01:51.411Z,69.13
2023-01-26T06:04:18.818Z,61.20
2023-01-26T06:06:46.091Z,61.80
2023-01-26T06:09:13.486Z,62.97
2023-01-26T06:11:41.465Z,77.10
2023-01-26T06:14:08.837Z,74.63
2023-01-26T06:16:36.143Z,67.30
2023-01-26T06:19:03.631Z,68.10
2023-01-26T06:21:31.733Z,71.47
2023-01-26T06:23:59.436Z,71.43
2023-01-26T06:26:27.025Z,82.43
2023-01-26T06:28:55.065Z,49.93
2023-01-26T06:31:23.515Z,70.60
2023-01-26T06:33:50.901Z,117.43
2023-01-26T06:36:18.145Z,76.00
2023-01-26T06:38:47.269Z,60.50
2023-01-26T06:41:14.964Z,56.63
2023-01-26T06:43:46.033Z,56.57
2023-01-26T06:46:14.710Z,61.40
2023-01-26T06:48:41.999Z,68.23
2023-01-26T06:51:46.989Z,69.67
2023-01-26T06:54:15.039Z,63.37
2023-01-26T06:56:42.492Z,77.37
2023-01-26T06:59:10.340Z,69.70
2023-01-26T07:01:40.923Z,73.93
2023-01-26T07:04:08.280Z,72.10
2023-01-26T07:06:35.559Z,76.37
2023-01-26T07:09:02.886Z,95.63
2023-01-26T07:11:31.702Z,66.93
2023-01-26T07:13:59.351Z,80.80
2023-01-26T07:16:27.112Z,84.20
2023-01-26T07:18:55.335Z,72.30
2023-01-26T07:21:22.707Z,79.13
2023-01-26T07:23:50.801Z,38.67
2023-01-26T07:26:18.576Z,68.27
2023-01-26T07:28:46.102Z,55.10
2023-01-26T07:31:14.022Z,61.93
2023-01-26T07:33:41.429Z,46.93
2023-01-26T07:36:10.629Z,61.00
2023-01-26T07:38:38.175Z,71.03
2023-01-26T07:41:07.987Z,57.57
2023-01-26T07:43:35.763Z,66.73
2023-01-26T07:46:03.777Z,73.57
2023-01-26T07:48:31.335Z,58.83
2023-01-26T07:50:59.826Z,58.80
2023-01-26T07:53:29.408Z,66.67
2023-01-26T07:56:06.924Z,69.87
2023-01-26T07:58:34.891Z,62.23
2023-01-26T08:01:07.198Z,60.67
2023-01-26T08:03:34.687Z,56.20
2023-01-26T08:06:01.949Z,62.80
2023-01-26T08:08:30.169Z,78.77
2023-01-26T08:10:59.746Z,52.70
2023-01-26T08:13:35.514Z,58.67
2023-01-26T08:16:04.381Z,60.47
2023-01-26T08:18:32.014Z,42.50
2023-01-26T08:20:59.777Z,65.77
2023-01-26T08:23:27.469Z,64.53
2023-01-26T08:25:55.559Z,39.50
2023-01-26T08:28:22.951Z,50.30
2023-01-26T08:30:50.194Z,53.53
2023-01-26T08:33:17.488Z,51.27
2023-01-26T08:35:44.759Z,51.23
2023-01-26T08:38:12.038Z,58.20
2023-01-26T08:40:39.271Z,50.27
2023-01-26T08:43:07.205Z,38.03
2023-01-26T08:45:34.468Z,50.30
2023-01-26T08:48:01.844Z,52.60
2023-01-26T08:50:29.105Z,52.60
2023-01-26T08:52:57.368Z,58.83
2023-01-26T08:55:24.675Z,43.80
2023-01-26T08:57:55.180Z,50.90
2023-01-26T09:00:24.651Z,55.33
2023-01-26T09:02:57.932Z,49.90
2023-01-26T09:05:25.322Z,40.40
2023-01-26T09:07:52.638Z,41.33
2023-01-26T09:10:19.883Z,48.80
2023-01-26T09:12:47.168Z,52.53
2023-01-26T09:15:14.509Z,52.50
2023-01-26T09:17:42.564Z,51.07
2023-01-26T09:20:11.098Z,62.47
2023-01-26T09:22:38.708Z,45.47
2023-01-26T09:25:06.793Z,46.57
2023-01-26T09:27:34.129Z,50.67
2023-01-26T09:30:01.528Z,58.03
2023-01-26T09:32:29.517Z,46.23
2023-01-26T09:34:57.528Z,47.27
2023-01-26T09:37:24.911Z,43.83
2023-01-26T09:39:52.159Z,48.47
2023-01-26T09:42:37.633Z,55.37
2023-01-26T09:45:22.218Z,44.67
2023-01-26T09:48:05.999Z,54.97
2023-01-26T09:50:40.291Z,50.40
2023-01-26T09:53:16.044Z,47.07
2023-01-26T09:55:45.619Z,40.87
2023-01-26T09:58:17.614Z,48.73
2023-01-26T10:00:48.212Z,52.90
2023-01-26T10:03:25.288Z,53.10
2023-01-26T10:05:58.519Z,48.37
2023-01-26T10:08:26.294Z,45.93
2023-01-26T10:10:57.907Z,61.00
2023-01-26T10:13:25.991Z,42.50
2023-01-26T10:15:58.034Z,42.50
2023-01-26T10:18:32.081Z,50.60
2023-01-26T10:21:03.847Z,42.53
2023-01-26T10:23:32.791Z,52.13
2023-01-26T10:26:11.190Z,42.83
2023-01-26T10:28:39.390Z,45.90
2023-01-26T10:31:12.126Z,41.60
2023-01-26T10:33:43.470Z,68.90
2023-01-26T10:36:13.379Z,52.10
2023-01-26T10:38:42.644Z,42.40
2023-01-26T10:41:24.287Z,35.53
2023-01-26T10:43:55.836Z,23.03
2023-01-26T10:46:29.572Z,30.97
2023-01-26T10:48:58.758Z,43.57
2023-01-26T10:51:29.883Z,38.47
2023-01-26T10:54:18.780Z,44.27
2023-01-26T10:56:47.933Z,37.23
2023-01-26T10:59:22.913Z,37.90
2023-01-26T11:01:55.715Z,37.40
2023-01-26T11:04:24.195Z,42.77
2023-01-26T11:06:52.422Z,37.37
2023-01-26T11:09:24.384Z,43.77
2023-01-26T11:12:17.073Z,34.13
2023-01-26T11:15:01.234Z,27.80
2023-01-26T11:17:34.603Z,31.60
2023-01-26T11:20:30.901Z,37.07
2023-01-26T11:23:04.232Z,34.57
2023-01-26T11:25:39.144Z,29.90
2023-01-26T11:28:25.112Z,31.63
2023-01-26T11:31:16.204Z,31.07
2023-01-26T11:33:52.309Z,33.27
2023-01-26T11:36:30.529Z,50.43
2023-01-26T11:39:08.861Z,29.60
2023-01-26T11:41:48.925Z,32.20
2023-01-26T11:45:00.192Z,36.00
2023-01-26T11:47:41.446Z,30.63
2023-01-26T11:50:26.123Z,31.37
2023-01-26T11:53:06.149Z,24.67
2023-01-26T11:55:48.865Z,38.73
2023-01-26T11:58:27.403Z,29.63
2023-01-26T12:00:58.603Z,23.43
2023-01-26T12:03:33.495Z,27.33
2023-01-26T12:06:05.273Z,24.20
2023-01-26T12:08:39.108Z,31.73
2023-01-26T12:11:22.980Z,32.40
2023-01-26T12:14:20.924Z,20.83
2023-01-26T12:17:17.731Z,13.40
2023-01-26T12:19:52.611Z,27.07
2023-01-26T12:22:25.542Z,21.47
2023-01-26T12:25:19.569Z,23.97
2023-01-26T12:27:52.841Z,27.73
2023-01-26T12:30:30.656Z,25.30
2023-01-26T12:32:58.122Z,24.43
2023-01-26T12:35:42.693Z,23.37
2023-01-26T12:38:18.312Z,16.93
2023-01-26T12:40:58.930Z,29.93
2023-01-26T12:43:42.738Z,23.77
2023-01-26T12:46:10.999Z,25.23
2023-01-26T12:48:44.740Z,23.67
2023-01-26T12:51:19.166Z,21.20
2023-01-26T12:53:55.481Z,19.70
2023-01-26T12:56:28.535Z,23.97
2023-01-26T12:58:59.672Z,24.13
2023-01-26T13:01:38.764Z,20.70
2023-01-26T13:04:10.219Z,21.70
2023-01-26T13:06:37.566Z,19.90
2023-01-26T13:09:19.870Z,23.70
2023-01-26T13:11:49.853Z,25.03
2023-01-26T13:14:37.067Z,19.27
2023-01-26T13:17:53.382Z,23.50
2023-01-26T13:20:43.462Z,22.80
2023-01-26T13:23:44.363Z,15.63
2023-01-26T13:26:40.900Z,27.60
2023-01-26T13:29:31.009Z,24.90
2023-01-26T13:32:00.162Z,23.53
2023-01-26T13:34:30.822Z,19.57
2023-01-26T13:37:06.253Z,26.77
2023-01-26T13:39:36.769Z,21.27
2023-01-26T13:42:18.987Z,25.77
2023-01-26T13:44:52.530Z,26.03
2023-01-26T13:47:25.767Z,25.43
2023-01-26T13:49:53.047Z,20.03
2023-01-26T13:52:22.626Z,24.10
2023-01-26T13:54:51.642Z,25.77
2023-01-26T13:57:22.445Z,22.23
2023-01-26T13:59:51.462Z,29.70
2023-01-26T14:02:24.125Z,16.30
2023-01-26T14:04:54.631Z,21.07
2023-01-26T14:07:26.021Z,22.30
2023-01-26T14:09:55.376Z,25.47
2023-01-26T14:12:24.937Z,17.70
2023-01-26T14:14:55.060Z,30.43
2023-01-26T14:17:27.251Z,23.70
2023-01-26T14:19:55.084Z,16.90
2023-01-26T14:22:22.708Z,22.67
2023-01-26T14:24:51.294Z,22.00
2023-01-26T14:27:30.912Z,22.27
2023-01-26T14:29:59.578Z,25.70
2023-01-26T14:32:29.129Z,19.60
2023-01-26T14:34:58.169Z,22.10
2023-01-26T14:37:25.882Z,15.70
2023-01-26T14:40:18.960Z,21.17
2023-01-26T14:42:47.345Z,21.47
2023-01-26T14:45:15.766Z,29.00
2023-01-26T14:47:44.594Z,24.50
2023-01-26T14:50:19.893Z,20.70
2023-01-26T14:52:48.358Z,18.43
2023-01-26T14:55:20.924Z,18.53
2023-01-26T14:57:48.339Z,33.10
2023-01-26T15:00:27.469Z,27.97
2023-01-26T15:02:56.898Z,27.43
2023-01-26T15:05:31.461Z,31.40
2023-01-26T15:08:01.560Z,28.37
2023-01-26T15:10:37.135Z,21.10
2023-01-26T15:13:07.960Z,28.63
2023-01-26T15:15:38.513Z,25.50
2023-01-26T15:18:20.633Z,21.60
2023-01-26T15:20:59.666Z,30.47
2023-01-26T15:23:29.489Z,30.73
2023-01-26T15:26:03.995Z,35.73
2023-01-26T15:28:32.223Z,24.10
2023-01-26T15:31:00.823Z,25.63
2023-01-26T15:33:49.414Z,26.50
2023-01-26T15:36:32.885Z,41.57
2023-01-26T15:39:03.713Z,41.53
2023-01-26T15:41:31.291Z,27.40
2023-01-26T15:43:59.027Z,37.73
2023-01-26T15:46:27.076Z,43.33
2023-01-26T15:48:55.170Z,24.70
2023-01-26T15:51:23.185Z,31.87
2023-01-26T15:53:50.413Z,29.83
2023-01-26T15:56:17.658Z,27.27
2023-01-26T15:58:44.880Z,25.83
2023-01-26T16:01:32.636Z,30.40
2023-01-26T16:03:59.896Z,25.07
2023-01-26T16:06:29.095Z,36.33
2023-01-26T16:08:57.028Z,57.80
2023-01-26T16:11:28.491Z,43.60
2023-01-26T16:14:03.319Z,26.43
2023-01-26T16:16:32.338Z,20.77
2023-01-26T16:18:59.736Z,16.47
2023-01-26T16:21:30.666Z,16.37
2023-01-26T16:23:58.235Z,24.40
2023-01-26T16:26:26.958Z,22.77
2023-01-26T16:28:54.842Z,26.60
2023-01-26T16:31:23.659Z,25.50
2023-01-26T16:33:52.092Z,28.13
2023-01-26T16:36:20.630Z,25.23
2023-01-26T16:38:48.381Z,26.17
2023-01-26T16:41:21.358Z,27.73
2023-01-26T16:43:48.736Z,26.37
2023-01-26T16:46:16.007Z,22.23
2023-01-26T16:48:43.287Z,20.63
2023-01-26T16:51:17.852Z,27.23
2023-01-26T16:53:45.908Z,21.43
2023-01-26T16:56:14.764Z,26.50
2023-01-26T16:58:42.186Z,29.60
2023-01-26T17:01:18.018Z,22.77
2023-01-26T17:03:45.531Z,27.43
2023-01-26T17:06:12.967Z,26.40
2023-01-26T17:08:41.177Z,27.93
2023-01-26T17:11:14.634Z,27.77
2023-01-26T17:13:41.961Z,30.93
2023-01-26T17:16:14.775Z,34.97
2023-01-26T17:18:42.586Z,24.80
2023-01-26T17:21:09.883Z,26.93
2023-01-26T17:23:40.757Z,30.00
2023-01-26T17:26:10.884Z,26.87
2023-01-26T17:28:38.297Z,31.87
2023-01-26T17:31:09.324Z,27.00
2023-01-26T17:33:36.952Z,33.90
2023-01-26T17:36:05.490Z,29.10
2023-01-26T17:38:32.846Z,41.53
2023-01-26T17:41:00.538Z,56.47
2023-01-26T17:43:29.205Z,36.77
2023-01-26T17:46:07.328Z,32.63
2023-01-26T17:48:36.811Z,43.33
2023-01-26T17:51:06.406Z,38.83
2023-01-26T17:53:35.747Z,35.77
2023-01-26T17:56:03.531Z,31.27
2023-01-26T17:58:31.446Z,43.10
2023-01-26T18:00:58.779Z,25.30
2023-01-26T18:03:26.332Z,33.63
2023-01-26T18:05:55.058Z,28.37
2023-01-26T18:08:23.443Z,23.93
2023-01-26T18:10:56.599Z,40.03
2023-01-26T18:13:23.951Z,19.90
2023-01-26T18:15:53.503Z,40.10
2023-01-26T18:18:21.624Z,30.37
2023-01-26T18:20:48.943Z,40.57
2023-01-26T18:23:16.436Z,31.77
2023-01-26T18:25:44.041Z,42.23
2023-01-26T18:28:11.540Z,29.37
2023-01-26T18:30:38.937Z,17.30
2023-01-26T18:33:09.275Z,25.53
2023-01-26T18:35:36.777Z,21.57
2023-01-26T18:38:04.448Z,34.70
2023-01-26T18:40:31.680Z,44.30
2023-01-26T18:42:58.942Z,22.77
2023-01-26T18:45:26.119Z,38.07
2023-01-26T18:47:53.328Z,40.50
2023-01-26T18:50:21.226Z,28.00
2023-01-26T18:52:48.494Z,23.47
2023-01-26T18:55:16.052Z,19.13
2023-01-26T18:57:43.317Z,19.03
2023-01-26T19:00:13.233Z,24.80
2023-01-26T19:02:40.648Z,27.87
2023-01-26T19:05:08.334Z,34.20
2023-01-26T19:07:36.271Z,32.57
2023-01-26T19:10:05.335Z,32.37
2023-01-26T19:12:44.260Z,22.90
2023-01-26T19:15:11.883Z,19.53
2023-01-26T19:17:41.104Z,34.53
2023-01-26T19:20:09.711Z,42.10
2023-01-26T19:22:37.889Z,44.53
2023-01-26T19:25:07.534Z,52.27
2023-01-26T19:27:34.753Z,46.57
2023-01-26T19:30:02.139Z,46.90
2023-01-26T19:32:29.502Z,51.43
2023-01-26T19:34:56.754Z,59.57
2023-01-26T19:37:24.064Z,41.10
2023-01-26T19:39:52.054Z,47.40
2023-01-26T19:42:19.231Z,43.13
2023-01-26T19:44:46.704Z,42.13
2023-01-26T19:47:14.072Z,35.00
2023-01-26T19:49:41.317Z,40.30
2023-01-26T19:52:08.561Z,31.87
2023-01-26T19:54:35.901Z,36.40
2023-01-26T19:57:03.949Z,39.93
2023-01-26T19:59:31.264Z,42.53
2023-01-26T20:01:58.558Z,49.43
2023-01-26T20:04:25.823Z,65.07
2023-01-26T20:06:53.149Z,49.63
2023-01-26T20:09:20.517Z,39.53
2023-01-26T20:11:49.353Z,53.90
2023-01-26T20:14:17.360Z,37.10
2023-01-26T20:16:44.669Z,49.20
2023-01-26T20:19:13.254Z,49.27
2023-01-26T20:21:40.515Z,38.10
2023-01-26T20:24:10.782Z,32.37
2023-01-26T20:26:40.113Z,44.23
2023-01-26T20:29:10.990Z,52.27
2023-01-26T20:31:48.964Z,42.70
2023-01-26T20:34:17.487Z,42.53
2023-01-26T20:36:48.886Z,38.57
2023-01-26T20:39:24.866Z,46.70
2023-01-26T20:41:53.619Z,38.60
2023-01-26T20:44:20.868Z,33.07
2023-01-26T20:46:49.262Z,27.90
2023-01-26T20:49:18.318Z,37.10
2023-01-26T20:51:46.076Z,32.90
2023-01-26T20:54:15.149Z,44.93
2023-01-26T20:56:43.519Z,34.80
2023-01-26T20:59:11.341Z,35.43
2023-01-26T21:01:38.650Z,38.50
2023-01-26T21:04:07.155Z,37.90
2023-01-26T21:06:35.567Z,44.03
2023-01-26T21:09:04.742Z,29.73
2023-01-26T21:11:32.855Z,22.27
2023-01-26T21:14:03.852Z,38.10
2023-01-26T21:16:32.551Z,31.83
2023-01-26T21:18:59.854Z,23.53
2023-01-26T21:21:28.147Z,33.97
2023-01-26T21:23:55.458Z,36.53
2023-01-26T21:26:24.255Z,38.40
2023-01-26T21:28:52.254Z,31.47
2023-01-26T21:31:21.281Z,38.83
2023-01-26T21:33:49.628Z,35.60
2023-01-26T21:36:19.282Z,36.33
2023-01-26T21:38:50.196Z,35.90
2023-01-26T21:41:37.793Z,33.53
2023-01-26T21:44:07.349Z,40.23
2023-01-26T21:46:34.898Z,37.33
2023-01-26T21:49:02.742Z,36.40
2023-01-26T21:51:48.428Z,26.30
2023-01-26T21:54:16.986Z,28.83
2023-01-26T21:56:44.340Z,32.37
2023-01-26T21:59:14.624Z,33.43
2023-01-26T22:01:44.124Z,34.60
2023-01-26T22:04:13.961Z,38.13
2023-01-26T22:06:44.253Z,32.77
2023-01-26T22:09:13.622Z,30.30
2023-01-26T22:11:42.064Z,41.97
2023-01-26T22:14:14.537Z,47.83
2023-01-26T22:16:42.322Z,34.10
2023-01-26T22:19:10.093Z,26.87
2023-01-26T22:21:37.644Z,35.10
2023-01-26T22:24:05.736Z,36.57
2023-01-26T22:26:33.308Z,28.67
2023-01-26T22:29:02.754Z,32.20
2023-01-26T22:31:30.893Z,31.23
2023-01-26T22:34:03.942Z,26.63
2023-01-26T22:36:31.403Z,39.60
2023-01-26T22:39:00.449Z,31.03
2023-01-26T22:41:37.124Z,26.67
2023-01-26T22:44:05.741Z,31.47
2023-01-26T22:46:33.558Z,29.57
2023-01-26T22:49:01.561Z,28.03
2023-01-26T22:51:30.957Z,23.97
2023-01-26T22:53:59.881Z,28.20
2023-01-26T22:56:28.095Z,32.00
2023-01-26T22:59:03.426Z,26.90
2023-01-26T23:01:33.240Z,29.30
2023-01-26T23:04:01.615Z,18.80
2023-01-26T23:06:29.586Z,23.33
2023-01-26T23:09:00.836Z,27.27
2023-01-26T23:11:31.685Z,32.30
2023-01-26T23:14:00.328Z,27.87
2023-01-26T23:16:28.745Z,35.77
2023-01-26T23:19:01.366Z,36.20
2023-01-26T23:21:31.134Z,37.23
2023-01-26T23:23:59.303Z,25.20
2023-01-26T23:26:26.993Z,35.20
2023-01-26T23:28:54.536Z,23.83
2023-01-26T23:31:22.288Z,20.40
2023-01-26T23:33:49.852Z,25.70
2023-01-26T23:36:18.196Z,26.17
2023-01-26T23:38:46.819Z,22.53
2023-01-26T23:41:14.348Z,16.83
2023-01-26T23:43:41.978Z,31.10
2023-01-26T23:46:10.663Z,32.13
2023-01-26T23:48:38.568Z,16.80
2023-01-26T23:51:08.374Z,25.87
2023-01-26T23:53:37.304Z,24.80
2023-01-26T23:56:08.845Z,32.67
2023-01-26T23:58:37.360Z,30.43
